Tucuma, Brazil
Current Conditions -  °F | °C
As of 10:00 PM on Monday 22 Dec 2014 (Local Time) from SBMA Reporting Station
Clear Clear  
Wind Chill: 77°   Ceiling: Unl
Heat Index: 78°   Visibility: 6mi
Dew Point: 77°   Wind: 2mph
Humidity: 100%   Direction: 260°W
Pressure: 29.85"   Gusts: NA
Location:  6.75°S, 51.16°W
Report Text: SBMA 230100Z 26002KT CAVOK 25/25 Q1011
Loading
Personal Weather Stations






























Interactive Weather Map New forecast layout! Learn more

10-Day Weather Forecast

Advertisements
Track Severe Weather on mobile